Time;durP1;ratioP1;P1;durP2;ratioP2;P2;SDS_P1;SDS_P2;PMS_P1;PMS_P2;Temp;Humidity;BMP_temperature;BMP_pressure;BME280_temperature;BME280_humidity;BME280_pressure;Samples;Min_cycle;Max_cycle;Signal;HPM_P1;HPM_P2
2024/01/12 00:02:50;;;;;;;;;58.00;44.50;;;;;3.73;100.00;99476.66;5907159;29;96215;-62
2024/01/12 00:05:54;;;;;;;;;55.00;43.00;;;;;3.76;100.00;99473.69;5888985;29;100139;-63
2024/01/12 00:08:59;;;;;;;;;56.50;44.00;;;;;3.80;100.00;99475.84;5907315;29;96450;-62
2024/01/12 00:12:02;;;;;;;;;57.40;44.60;;;;;3.85;100.00;99478.03;5884761;29;99025;-63
2024/01/12 00:15:06;;;;;;;;;53.50;43.00;;;;;3.91;100.00;99488.00;5887099;29;96372;-59
2024/01/12 00:18:09;;;;;;;;;53.80;42.80;;;;;3.96;100.00;99485.69;5886723;29;96358;-60
2024/01/12 00:21:13;;;;;;;;;53.00;43.40;;;;;4.02;100.00;99492.19;5903287;29;98429;-60
2024/01/12 00:24:17;;;;;;;;;53.25;43.00;;;;;4.05;100.00;99487.41;5908248;29;96369;-60
2024/01/12 00:27:20;;;;;;;;;51.00;41.60;;;;;4.05;100.00;99491.88;5891567;29;96499;-60
2024/01/12 00:30:23;;;;;;;;;49.20;40.00;;;;;4.04;100.00;99493.72;5901250;29;96406;-60
2024/01/12 00:33:27;;;;;;;;;53.00;43.00;;;;;4.02;100.00;99500.22;5899053;29;96358;-60
2024/01/12 00:36:30;;;;;;;;;55.00;42.60;;;;;3.98;100.00;99491.72;5889179;29;96612;-60
2024/01/12 00:39:53;;;;;;;;;51.80;41.80;;;;;3.95;100.00;99488.53;5886801;29;96325;-58
2024/01/12 00:42:56;;;;;;;;;50.80;41.00;;;;;3.97;100.00;99500.69;5885913;29;96553;-59
2024/01/12 00:45:59;;;;;;;;;49.50;39.50;;;;;3.97;100.00;99506.03;5885775;29;96384;-59
2024/01/12 00:49:02;;;;;;;;;50.00;39.00;;;;;3.96;100.00;99504.38;5899802;29;97089;-60
2024/01/12 00:52:06;;;;;;;;;52.20;42.00;;;;;3.92;100.00;99509.19;5884966;29;96440;-60
2024/01/12 00:55:11;;;;;;;;;50.00;39.80;;;;;3.95;100.00;99509.88;5885753;29;96647;-60
2024/01/12 00:58:15;;;;;;;;;49.00;38.00;;;;;3.95;100.00;99512.56;5906400;29;96363;-60
2024/01/12 01:01:18;;;;;;;;;50.00;40.50;;;;;3.90;100.00;99508.56;5885670;29;97014;-59
2024/01/12 01:04:21;;;;;;;;;48.20;37.80;;;;;3.91;100.00;99517.34;5873957;29;98697;-59
2024/01/12 01:07:24;;;;;;;;;48.00;38.20;;;;;3.83;100.00;99498.69;5921928;29;96389;-60
2024/01/12 01:10:29;;;;;;;;;49.40;38.40;;;;;3.89;100.00;99509.53;5893405;29;96784;-59
2024/01/12 01:13:35;;;;;;;;;47.20;39.00;;;;;3.90;100.00;99508.56;5895250;29;96506;-60
2024/01/12 01:16:38;;;;;;;;;46.80;38.20;;;;;3.90;100.00;99499.72;5907840;29;97574;-59
2024/01/12 01:19:42;;;;;;;;;45.00;36.20;;;;;3.92;100.00;99500.38;5907243;29;96632;-60
2024/01/12 01:22:45;;;;;;;;;49.00;36.75;;;;;3.96;100.00;99492.88;5890455;29;96214;-59
2024/01/12 01:25:49;;;;;;;;;43.60;35.00;;;;;3.96;100.00;99493.69;5886201;29;96736;-65
2024/01/12 01:28:52;;;;;;;;;42.00;36.00;;;;;3.86;100.00;99493.03;5893640;29;96391;-65
2024/01/12 01:31:55;;;;;;;;;46.00;36.00;;;;;3.92;100.00;99508.38;5887555;29;96222;-65
2024/01/12 01:34:59;;;;;;;;;43.50;35.00;;;;;3.87;100.00;99508.84;5887112;29;96358;-64
2024/01/12 01:38:02;;;;;;;;;42.00;33.00;;;;;3.82;100.00;99505.84;5878493;29;96751;-65
2024/01/12 01:41:07;;;;;;;;;48.00;38.00;;;;;3.82;100.00;99505.84;5904487;29;96935;-65
2024/01/12 01:44:10;;;;;;;;;43.20;34.60;;;;;3.86;100.00;99503.72;5891171;29;99098;-65
2024/01/12 01:47:14;;;;;;;;;46.00;35.50;;;;;3.84;100.00;99505.69;5898722;29;96560;-65
2024/01/12 01:50:18;;;;;;;;;49.00;38.40;;;;;3.81;100.00;99500.69;5910194;29;97025;-65
2024/01/12 01:53:22;;;;;;;;;48.40;38.00;;;;;3.81;100.00;99500.69;5908828;29;96421;-65
2024/01/12 01:56:27;;;;;;;;;42.75;35.00;;;;;3.74;100.00;99483.66;5902498;29;97505;-65
2024/01/12 01:59:31;;;;;;;;;45.40;36.60;;;;;3.75;100.00;99493.34;5885730;29;98300;-65
2024/01/12 02:02:34;;;;;;;;;49.80;39.00;;;;;3.74;100.00;99494.34;5913060;23;97828;-55
2024/01/12 02:05:38;;;;;;;;;50.00;38.20;;;;;3.71;100.00;99492.84;5921958;29;96259;-55
2024/01/12 02:08:42;;;;;;;;;48.00;39.00;;;;;3.72;100.00;99498.97;5922124;29;96346;-55
2024/01/12 02:11:46;;;;;;;;;47.00;38.00;;;;;3.67;100.00;99501.31;5919628;29;97101;-55
2024/01/12 02:14:50;;;;;;;;;45.60;38.00;;;;;3.64;100.00;99504.31;5923355;29;96141;-55
2024/01/12 02:17:53;;;;;;;;;45.80;37.60;;;;;3.62;100.00;99504.47;5923298;29;96335;-55
2024/01/12 02:20:58;;;;;;;;;45.40;37.20;;;;;3.66;100.00;99515.66;5918044;29;96358;-56
2024/01/12 02:24:01;;;;;;;;;47.60;37.20;;;;;3.64;100.00;99506.97;5900174;29;96417;-55
2024/01/12 02:27:05;;;;;;;;;48.00;38.40;;;;;3.59;100.00;99503.94;5901170;29;96420;-56
2024/01/12 02:30:09;;;;;;;;;49.00;39.00;;;;;3.59;100.00;99501.28;5919812;29;96357;-56
2024/01/12 02:33:12;;;;;;;;;52.00;41.80;;;;;3.59;100.00;99501.28;5915751;29;96888;-55
2024/01/12 02:36:17;;;;;;;;;48.00;39.00;;;;;3.63;100.00;99502.63;5921130;29;96265;-55
2024/01/12 02:39:20;;;;;;;;;45.67;36.33;;;;;3.64;100.00;99493.63;5922020;29;96282;-55
2024/01/12 02:42:23;;;;;;;;;47.00;39.00;;;;;3.63;100.00;99500.81;5919848;29;96435;-55
2024/01/12 02:45:26;;;;;;;;;46.20;38.20;;;;;3.67;100.00;99493.31;5921020;29;96450;-55
2024/01/12 02:48:30;;;;;;;;;46.40;36.80;;;;;3.69;100.00;99502.81;5935155;29;96356;-57
2024/01/12 02:51:34;;;;;;;;;46.80;38.60;;;;;3.71;100.00;99505.34;5921008;29;96365;-55
2024/01/12 02:54:37;;;;;;;;;50.80;39.00;;;;;3.74;100.00;99503.16;5919406;29;96715;-55
2024/01/12 02:57:41;;;;;;;;;46.80;37.80;;;;;3.75;100.00;99504.84;5920321;29;96924;-55
2024/01/12 03:00:44;;;;;;;;;47.50;38.00;;;;;3.79;100.00;99497.34;5922096;29;96270;-56
2024/01/12 03:03:47;;;;;;;;;49.40;39.60;;;;;3.77;100.00;99505.50;5921194;29;96310;-56
2024/01/12 03:06:51;;;;;;;;;45.25;37.50;;;;;3.80;100.00;99515.88;5921238;29;96859;-56
2024/01/12 03:09:55;;;;;;;;;46.20;36.80;;;;;3.82;100.00;99521.84;5922271;29;96366;-55
2024/01/12 03:12:58;;;;;;;;;46.50;37.00;;;;;3.83;100.00;99512.84;5922408;29;96358;-55
2024/01/12 03:16:01;;;;;;;;;48.00;38.40;;;;;3.78;100.00;99509.84;5911903;29;96441;-59
2024/01/12 03:19:04;;;;;;;;;47.60;37.00;;;;;3.71;100.00;99505.34;5896898;29;97444;-59
2024/01/12 03:22:09;;;;;;;;;45.40;38.00;;;;;3.61;100.00;99496.66;5892849;29;96389;-59
2024/01/12 03:25:13;;;;;;;;;50.00;39.00;;;;;3.66;100.00;99497.00;5903877;29;96570;-59
2024/01/12 03:28:16;;;;;;;;;46.00;38.00;;;;;3.66;100.00;99502.31;5905675;29;96475;-59
2024/01/12 03:31:20;;;;;;;;;46.00;37.75;;;;;3.66;100.00;99513.81;5903126;29;96403;-59
2024/01/12 03:34:23;;;;;;;;;45.00;38.00;;;;;3.66;100.00;99521.00;5904996;29;96321;-59
2024/01/12 03:37:27;;;;;;;;;45.00;36.40;;;;;3.68;100.00;99509.16;5903841;29;96547;-59
2024/01/12 03:40:31;;;;;;;;;46.75;38.00;;;;;3.70;100.00;99519.66;5904839;29;96351;-59
2024/01/12 03:43:34;;;;;;;;;46.25;38.00;;;;;3.77;100.00;99520.66;5904619;29;96383;-59
2024/01/12 03:46:37;;;;;;;;;46.60;36.00;;;;;3.82;100.00;99523.69;5905107;29;97566;-59
2024/01/12 03:49:40;;;;;;;;;45.00;37.00;;;;;3.86;100.00;99533.06;5905164;29;96429;-59
2024/01/12 03:52:44;;;;;;;;;46.60;37.60;;;;;3.81;100.00;99520.16;5904987;29;96453;-59
2024/01/12 03:55:48;;;;;;;;;45.00;37.00;;;;;3.95;100.00;99534.72;5904645;29;96411;-59
2024/01/12 03:58:51;;;;;;;;;45.00;36.00;;;;;3.82;100.00;99510.34;5904758;29;96347;-59
2024/01/12 04:01:54;;;;;;;;;43.80;35.80;;;;;4.01;100.00;99535.91;5900586;29;96649;-59
2024/01/12 04:04:57;;;;;;;;;45.00;36.00;;;;;3.99;100.00;99541.41;5900795;29;96565;-59
2024/01/12 04:08:02;;;;;;;;;44.60;35.00;;;;;3.99;100.00;99543.22;5902843;29;96385;-59
2024/01/12 04:11:05;;;;;;;;;45.00;35.00;;;;;3.99;100.00;99530.72;5902098;29;97179;-59
2024/01/12 04:14:09;;;;;;;;;44.60;35.80;;;;;3.99;100.00;99544.06;5900479;29;96602;-59
2024/01/12 04:17:12;;;;;;;;;40.60;34.00;;;;;3.94;100.00;99538.38;5915301;29;98643;-59
2024/01/12 04:20:15;;;;;;;;;42.00;35.00;;;;;3.90;100.00;99547.72;5901479;29;96640;-59
2024/01/12 04:23:20;;;;;;;;;42.00;34.40;;;;;3.84;100.00;99562.53;5902507;29;96807;-59
2024/01/12 04:26:23;;;;;;;;;40.50;34.00;;;;;3.78;100.00;99562.34;5898332;29;99669;-59
2024/01/12 04:29:26;;;;;;;;;35.60;32.00;;;;;3.72;100.00;99568.31;5895222;29;99957;-59
2024/01/12 04:32:30;;;;;;;;;38.80;33.60;;;;;3.65;100.00;99573.47;5901682;29;96904;-59
2024/01/12 04:35:33;;;;;;;;;40.40;33.00;;;;;3.59;100.00;99567.94;5904477;29;96903;-59
2024/01/12 04:38:37;;;;;;;;;33.80;30.00;;;;;3.54;100.00;99568.44;5906675;29;96865;-59
2024/01/12 04:41:40;;;;;;;;;39.25;32.00;;;;;3.51;100.00;99575.91;5906420;29;96399;-59
2024/01/12 04:44:44;;;;;;;;;40.60;35.00;;;;;3.39;100.00;99560.19;5906627;29;96350;-59
2024/01/12 04:47:47;;;;;;;;;42.40;33.00;;;;;3.41;100.00;99557.38;5905589;29;96610;-60
2024/01/12 04:50:50;;;;;;;;;38.50;32.50;;;;;3.37;100.00;99559.50;5906873;29;96557;-59
2024/01/12 04:53:55;;;;;;;;;38.25;32.00;;;;;3.32;100.00;99553.00;5905329;29;98556;-59
2024/01/12 04:56:58;;;;;;;;;41.40;34.00;;;;;3.24;100.00;99545.78;5904225;29;96223;-59
2024/01/12 05:00:03;;;;;;;;;37.00;33.00;;;;;3.17;100.00;99546.59;5900471;29;96667;-59
2024/01/12 05:03:06;;;;;;;;;31.40;27.40;;;;;3.10;100.00;99562.38;5904538;29;96299;-59
2024/01/12 05:06:10;;;;;;;;;35.50;31.50;;;;;3.02;100.00;99557.00;5904435;29;96411;-59
2024/01/12 05:09:15;;;;;;;;;37.00;32.00;;;;;2.98;100.00;99559.13;5898721;29;96839;-59
2024/01/12 05:12:19;;;;;;;;;33.60;31.00;;;;;2.96;100.00;99561.13;5899475;29;96390;-59
2024/01/12 05:15:22;;;;;;;;;35.00;32.00;;;;;2.92;100.00;99566.94;5905925;29;96976;-60
2024/01/12 05:18:25;;;;;;;;;42.50;33.00;;;;;2.87;100.00;99562.06;5901630;29;96872;-59
2024/01/12 05:21:29;;;;;;;;;39.50;32.75;;;;;2.83;100.00;99574.03;5888175;29;96593;-59
2024/01/12 05:24:33;;;;;;;;;35.80;32.00;;;;;2.78;100.00;99570.16;5904143;29;96356;-59
2024/01/12 05:27:36;;;;;;;;;40.75;34.00;;;;;2.76;100.00;99574.78;5904214;29;96317;-59
2024/01/12 05:30:40;;;;;;;;;35.25;30.50;;;;;2.77;100.00;99579.13;5902197;29;96724;-59
2024/01/12 05:33:43;;;;;;;;;32.60;30.00;;;;;2.75;100.00;99581.09;5902781;29;96609;-59
2024/01/12 05:36:46;;;;;;;;;37.60;32.00;;;;;2.72;100.00;99584.09;5904863;29;97058;-59
2024/01/12 05:39:50;;;;;;;;;40.75;32.75;;;;;2.74;100.00;99590.06;5898591;29;96479;-59
2024/01/12 05:42:54;;;;;;;;;33.60;29.20;;;;;2.65;100.00;99573.22;5891034;29;96933;-59
2024/01/12 05:45:57;;;;;;;;;35.50;30.00;;;;;2.76;100.00;99596.09;5896205;29;97723;-59
2024/01/12 05:49:04;;;;;;;;;37.00;32.00;;;;;2.75;100.00;99589.94;5901375;29;97148;-59
2024/01/12 05:52:08;;;;;;;;;33.60;30.60;;;;;2.69;100.00;99579.09;5897852;29;96546;-59
2024/01/12 05:55:12;;;;;;;;;40.00;33.00;;;;;2.76;100.00;99577.47;5888866;29;98527;-59
2024/01/12 05:58:15;;;;;;;;;35.50;31.75;;;;;2.82;100.00;99583.00;5906787;29;97205;-59
2024/01/12 06:01:18;;;;;;;;;35.40;30.00;;;;;2.82;100.00;99593.66;5906788;29;96469;-59
2024/01/12 06:04:22;;;;;;;;;42.40;34.20;;;;;2.78;100.00;99588.81;5901264;29;97460;-59
2024/01/12 06:07:26;;;;;;;;;35.00;31.00;;;;;2.76;100.00;99590.78;5900563;29;97291;-59
2024/01/12 06:10:30;;;;;;;;;37.40;32.00;;;;;2.72;100.00;99592.06;5900777;29;98600;-59
2024/01/12 06:13:34;;;;;;;;;39.00;33.00;;;;;2.68;100.00;99593.38;5904068;29;96271;-59
2024/01/12 06:16:37;;;;;;;;;35.80;32.00;;;;;2.63;100.00;99596.50;5903871;29;97891;-59
2024/01/12 06:19:40;;;;;;;;;39.80;34.40;;;;;2.57;100.00;99599.78;5900278;29;96142;-59
2024/01/12 06:22:44;;;;;;;;;40.60;35.00;;;;;2.52;100.00;99608.22;5905920;29;97166;-59
2024/01/12 06:25:48;;;;;;;;;42.60;32.60;;;;;2.43;100.00;99603.81;5892590;29;97098;-59
2024/01/12 06:28:51;;;;;;;;;38.00;33.00;;;;;2.31;100.00;99615.66;5904393;29;97080;-59
2024/01/12 06:31:54;;;;;;;;;36.40;31.00;;;;;2.26;100.00;99617.09;5905712;29;96541;-59
2024/01/12 06:34:57;;;;;;;;;36.00;31.60;;;;;2.25;100.00;99618.13;5905504;29;96517;-59
2024/01/12 06:38:00;;;;;;;;;34.00;31.25;;;;;2.26;100.00;99631.25;5905315;29;96448;-59
2024/01/12 06:41:05;;;;;;;;;35.00;31.20;;;;;2.17;100.00;99611.72;5889652;29;96387;-59
2024/01/12 06:44:09;;;;;;;;;38.50;33.00;;;;;2.41;100.00;99629.75;5903990;29;97013;-55
2024/01/12 06:47:12;;;;;;;;;33.60;29.80;;;;;2.52;100.00;99637.50;5936794;29;97078;-56
2024/01/12 06:50:15;;;;;;;;;38.00;32.00;;;;;2.60;100.00;99639.38;5922585;29;96947;-55
2024/01/12 06:53:18;;;;;;;;;32.60;29.40;;;;;2.66;100.00;99640.59;5920658;29;96871;-56
2024/01/12 06:56:23;;;;;;;;;42.40;36.00;;;;;2.71;100.00;99643.66;5921486;29;96298;-57
2024/01/12 06:59:26;;;;;;;;;46.60;36.40;;;;;2.79;100.00;99644.53;5920686;29;96349;-56
2024/01/12 07:02:29;;;;;;;;;40.40;32.40;;;;;2.87;100.00;99651.78;5919532;29;96806;-56
2024/01/12 07:05:32;;;;;;;;;27.50;26.00;;;;;2.96;100.00;99659.69;5920404;29;96471;-56
2024/01/12 07:08:36;;;;;;;;;21.00;18.67;;;;;2.99;100.00;99653.19;5918023;29;98427;-56
2024/01/12 07:11:42;;;;;;;;;18.80;18.00;;;;;3.08;100.00;99652.25;5936982;29;96347;-55
2024/01/12 07:14:45;;;;;;;;;15.50;14.50;;;;;3.18;100.00;99661.00;5921905;29;96673;-57
2024/01/12 07:17:50;;;;;;;;;17.60;16.00;;;;;3.26;100.00;99669.06;5920533;29;96684;-56
2024/01/12 07:20:55;;;;;;;;;18.00;15.40;;;;;3.36;100.00;99661.81;5936843;29;96502;-55
2024/01/12 07:23:58;;;;;;;;;15.40;13.60;;;;;3.58;100.00;99665.75;5921384;29;97480;-55
2024/01/12 07:27:03;;;;;;;;;12.40;12.00;;;;;3.69;100.00;99657.50;5922872;29;96275;-55
2024/01/12 07:30:07;;;;;;;;;12.60;12.00;;;;;4.06;100.00;99673.16;5921788;29;98168;-55
2024/01/12 07:33:10;;;;;;;;;15.00;13.00;;;;;4.82;100.00;99664.16;5922677;29;96274;-56
2024/01/12 07:36:14;;;;;;;;;13.40;12.00;;;;;6.32;100.00;99666.00;5922165;29;96408;-56
2024/01/12 07:39:17;;;;;;;;;15.40;13.40;;;;;8.09;100.00;99658.22;5922818;29;96845;-56
2024/01/12 07:42:21;;;;;;;;;11.00;11.00;;;;;10.00;99.63;99662.72;5922496;29;96252;-55
2024/01/12 07:45:24;;;;;;;;;12.00;11.00;;;;;11.70;89.53;99666.81;5921867;29;96466;-56
2024/01/12 07:48:27;;;;;;;;;12.00;8.60;;;;;13.12;79.21;99654.00;5922437;29;96289;-55
2024/01/12 07:51:31;;;;;;;;;10.20;9.00;;;;;14.23;74.03;99660.22;5923240;29;96378;-56
2024/01/12 07:54:34;;;;;;;;;12.00;12.00;;;;;14.58;69.18;99644.16;5923991;29;96373;-57
2024/01/12 07:57:38;;;;;;;;;14.40;11.00;;;;;13.70;69.00;99656.41;5918214;29;96445;-56
2024/01/12 08:00:41;;;;;;;;;7.80;7.20;;;;;12.58;71.71;99651.78;5917167;29;96989;-56
2024/01/12 08:03:45;;;;;;;;;10.00;9.40;;;;;11.66;75.13;99654.78;5914366;29;96826;-57
2024/01/12 08:06:48;;;;;;;;;10.00;9.00;;;;;11.01;78.18;99655.59;5916543;29;96231;-56
2024/01/12 08:09:52;;;;;;;;;11.00;10.00;;;;;10.60;80.68;99651.19;5920340;29;96298;-56
2024/01/12 08:12:56;;;;;;;;;9.00;9.00;;;;;10.36;80.66;99652.53;5920306;29;96290;-56
2024/01/12 08:15:59;;;;;;;;;12.00;10.00;;;;;10.32;82.09;99642.34;5920594;29;97021;-56
2024/01/12 08:19:02;;;;;;;;;13.80;12.00;;;;;10.75;82.71;99646.41;5920439;29;96664;-56
2024/01/12 08:22:06;;;;;;;;;11.60;11.00;;;;;11.47;79.89;99650.22;5933770;29;96330;-56
2024/01/12 08:25:09;;;;;;;;;10.67;9.33;;;;;11.53;77.08;99646.69;5920197;29;96321;-56
2024/01/12 08:28:13;;;;;;;;;13.00;12.00;;;;;11.73;77.72;99644.00;5934439;29;96223;-56
2024/01/12 08:31:17;;;;;;;;;16.00;15.00;;;;;12.83;75.79;99644.59;5918061;29;98685;-56
2024/01/12 08:34:21;;;;;;;;;11.75;11.00;;;;;14.46;68.88;99651.44;5920180;29;96341;-57
2024/01/12 08:37:25;;;;;;;;;14.00;14.00;;;;;15.31;64.84;99649.34;5921494;29;96920;-56
2024/01/12 08:40:28;;;;;;;;;11.00;11.00;;;;;15.38;63.36;99654.69;5936752;29;96352;-57
2024/01/12 08:43:32;;;;;;;;;12.40;11.00;;;;;14.81;62.47;99648.84;5922662;29;96569;-56
2024/01/12 08:46:37;;;;;;;;;11.60;11.00;;;;;14.17;63.51;99655.69;5922103;29;96227;-57
2024/01/12 08:49:40;;;;;;;;;14.00;13.00;;;;;13.62;64.78;99665.66;5920907;29;96300;-57
2024/01/12 08:52:44;;;;;;;;;12.60;12.00;;;;;13.24;65.87;99659.53;5920434;29;96489;-56
2024/01/12 08:55:47;;;;;;;;;10.20;10.20;;;;;12.78;66.93;99670.63;5920365;29;96040;-57
2024/01/12 08:58:52;;;;;;;;;12.00;11.00;;;;;12.32;67.79;99673.53;5920113;29;96421;-56
2024/01/12 09:01:56;;;;;;;;;13.80;12.40;;;;;13.95;68.54;99678.88;5919767;29;96366;-57
2024/01/12 09:05:02;;;;;;;;;13.00;12.00;;;;;17.52;60.66;99673.31;5920277;29;97105;-60
2024/01/12 09:08:06;;;;;;;;;11.00;11.00;;;;;20.95;48.57;99685.22;5907742;29;96884;-60
2024/01/12 09:11:12;;;;;;;;;13.50;12.50;;;;;23.91;44.11;99674.72;5907721;29;96453;-60
2024/01/12 09:14:17;;;;;;;;;12.25;11.00;;;;;26.17;39.04;99683.75;5922067;29;96403;-61
2024/01/12 09:17:20;;;;;;;;;13.00;11.40;;;;;28.02;36.46;99679.06;5908033;29;96467;-61
2024/01/12 09:20:23;;;;;;;;;12.00;11.00;;;;;29.48;32.91;99680.69;5906490;29;96396;-61
2024/01/12 09:23:27;;;;;;;;;11.00;10.00;;;;;30.41;31.07;99684.41;5907616;29;96274;-61
2024/01/12 09:26:30;;;;;;;;;13.00;12.00;;;;;28.69;30.86;99689.16;5907557;29;96361;-61
2024/01/12 09:29:35;;;;;;;;;12.50;11.00;;;;;26.39;32.43;99682.25;5907493;29;96471;-61
2024/01/12 09:32:38;;;;;;;;;14.60;13.00;;;;;23.77;34.66;99688.34;5907773;29;96328;-61
2024/01/12 09:35:41;;;;;;;;;12.00;11.00;;;;;22.58;36.98;99687.66;5907665;29;96409;-61
2024/01/12 09:38:45;;;;;;;;;12.60;11.60;;;;;22.56;37.88;99691.78;5907103;29;96958;-61
2024/01/12 09:41:49;;;;;;;;;11.80;10.80;;;;;21.10;38.85;99664.16;5921169;29;97491;-60
2024/01/12 09:44:54;;;;;;;;;15.00;13.00;;;;;20.87;40.69;99694.78;5905901;29;96693;-60
2024/01/12 09:48:10;;;;;;;;;17.40;15.40;;;;;20.45;41.51;99700.38;5907487;29;96301;-60
2024/01/12 09:51:17;;;;;;;;;12.60;11.60;;;;;19.23;42.99;99686.81;5907178;29;96298;-60
2024/01/12 09:54:20;;;;;;;;;14.00;13.00;;;;;17.87;45.52;99694.09;5907394;29;96412;-60
2024/01/12 09:57:24;;;;;;;;;12.00;11.00;;;;;16.65;48.08;99696.50;5906928;29;96379;-60
2024/01/12 10:00:32;;;;;;;;;10.80;10.00;;;;;16.04;49.41;99684.28;5906816;29;96446;-60
2024/01/12 10:03:36;;;;;;;;;11.00;10.00;;;;;15.51;50.57;99679.78;5920553;29;96455;-60
2024/01/12 10:06:40;;;;;;;;;8.00;7.40;;;;;15.06;51.91;99678.56;5906789;29;96628;-59
2024/01/12 10:09:43;;;;;;;;;7.20;7.20;;;;;14.53;52.66;99673.88;5906671;29;96237;-59
2024/01/12 10:12:49;;;;;;;;;9.00;8.00;;;;;16.10;52.20;99666.19;5906945;29;96347;-59
2024/01/12 10:15:53;;;;;;;;;10.60;10.00;;;;;16.58;49.02;99666.69;5907025;29;96411;-59
2024/01/12 10:18:57;;;;;;;;;7.80;7.20;;;;;18.07;46.55;99648.00;5906603;29;96692;-59
2024/01/12 10:22:01;;;;;;;;;9.00;8.00;;;;;21.29;42.77;99656.25;5907074;29;96288;-60
2024/01/12 10:25:05;;;;;;;;;9.80;8.40;;;;;24.20;37.55;99670.03;5906738;29;96305;-60
2024/01/12 10:28:08;;;;;;;;;9.00;8.00;;;;;26.59;33.02;99670.78;5906523;29;96205;-61
2024/01/12 10:31:13;;;;;;;;;8.00;8.00;;;;;28.42;29.64;99671.63;5904711;29;99294;-61
2024/01/12 10:34:16;;;;;;;;;10.00;9.00;;;;;29.74;27.58;99663.97;5905643;29;96741;-61
2024/01/12 10:37:21;;;;;;;;;9.75;8.75;;;;;29.84;26.05;99666.41;5905101;29;98504;-61
2024/01/12 10:40:26;;;;;;;;;10.25;10.00;;;;;30.14;26.73;99662.59;5906311;29;96329;-61
2024/01/12 10:43:34;;;;;;;;;7.00;7.00;;;;;31.09;26.73;99651.81;5906223;29;96940;-61
2024/01/12 10:46:45;;;;;;;;;10.40;9.80;;;;;32.07;25.01;99636.31;5906444;29;96408;-61
2024/01/12 10:49:50;;;;;;;;;9.60;8.60;;;;;32.60;24.82;99644.50;5920470;29;96952;-61
2024/01/12 10:53:05;;;;;;;;;10.00;9.00;;;;;31.05;24.49;99650.06;5906242;29;96868;-61
2024/01/12 10:56:09;;;;;;;;;10.00;8.00;;;;;27.90;26.12;99640.06;5906325;29;96352;-61
2024/01/12 10:59:12;;;;;;;;;10.00;10.00;;;;;25.17;28.82;99634.59;5919981;29;96362;-60
2024/01/12 11:02:19;;;;;;;;;9.50;9.00;;;;;22.74;31.34;99637.03;5905449;29;96390;-60
2024/01/12 11:05:22;;;;;;;;;11.00;10.00;;;;;20.98;34.19;99629.84;5906136;29;96404;-60
2024/01/12 11:08:28;;;;;;;;;12.00;10.00;;;;;19.90;36.68;99615.97;5905734;29;96258;-60
2024/01/12 11:11:41;;;;;;;;;11.00;9.00;;;;;19.19;37.33;99623.66;5905834;29;96371;-60
2024/01/12 11:14:44;;;;;;;;;11.00;10.00;;;;;18.33;38.20;99619.13;5905822;29;96158;-60
2024/01/12 11:17:49;;;;;;;;;13.00;11.60;;;;;17.86;39.52;99618.78;5905654;29;96575;-60
2024/01/12 11:21:00;;;;;;;;;10.60;10.60;;;;;17.21;40.94;99614.75;5906118;29;96479;-60
2024/01/12 11:24:04;;;;;;;;;9.00;8.00;;;;;16.66;41.21;99606.44;5919813;29;96945;-60
2024/01/12 11:27:07;;;;;;;;;12.60;10.00;;;;;16.21;42.37;99617.19;5918847;29;96334;-56
2024/01/12 11:30:11;;;;;;;;;11.00;10.00;;;;;15.85;43.33;99602.00;5927443;29;96319;-56
2024/01/12 11:33:20;;;;;;;;;10.00;10.00;;;;;15.58;44.24;99600.84;5926688;29;96522;-55
2024/01/12 11:36:26;;;;;;;;;12.60;11.00;;;;;15.40;45.50;99596.31;5925649;29;96318;-56
2024/01/12 11:39:33;;;;;;;;;11.40;10.40;;;;;15.32;45.80;99590.41;5910695;29;97496;-56
2024/01/12 11:42:37;;;;;;;;;13.00;11.00;;;;;15.15;45.94;99571.25;5902078;29;96498;-56
2024/01/12 11:45:41;;;;;;;;;10.50;9.75;;;;;14.99;46.48;99563.81;5901974;29;96373;-56
2024/01/12 11:48:47;;;;;;;;;11.00;10.00;;;;;15.22;47.21;99552.13;5902767;29;96374;-56
2024/01/12 11:51:50;;;;;;;;;9.25;9.25;;;;;15.14;46.84;99548.72;5903381;29;96322;-56
2024/01/12 11:54:54;;;;;;;;;11.00;10.00;;;;;14.99;47.75;99545.63;5901450;29;96372;-56
2024/01/12 11:57:57;;;;;;;;;13.00;11.00;;;;;14.64;48.21;99547.44;5902242;29;96379;-56
2024/01/12 12:01:00;;;;;;;;;12.00;11.60;;;;;14.12;49.78;99549.78;5914824;29;96362;-56
2024/01/12 12:04:06;;;;;;;;;12.00;11.75;;;;;13.72;50.89;99541.34;5900545;29;96977;-56
2024/01/12 12:07:09;;;;;;;;;13.75;12.00;;;;;13.37;52.68;99529.41;5899821;29;96343;-56
2024/01/12 12:10:12;;;;;;;;;14.80;13.00;;;;;13.07;53.81;99529.25;5899403;29;96450;-56
2024/01/12 12:13:15;;;;;;;;;16.00;13.60;;;;;12.77;55.34;99520.16;5914240;29;96340;-56
2024/01/12 12:16:19;;;;;;;;;16.60;14.00;;;;;12.45;57.51;99505.84;5906234;29;96426;-57
2024/01/12 12:19:25;;;;;;;;;17.00;15.00;;;;;12.17;58.70;99500.78;5919156;29;97626;-56
2024/01/12 12:22:31;;;;;;;;;18.25;15.00;;;;;11.96;60.57;99507.38;5922225;29;96335;-56
2024/01/12 12:25:34;;;;;;;;;16.50;15.50;;;;;11.73;62.06;99501.63;5922549;29;96328;-56
2024/01/12 12:28:37;;;;;;;;;18.00;17.00;;;;;11.55;63.32;99496.91;5920932;29;96340;-56
2024/01/12 12:31:41;;;;;;;;;17.50;16.00;;;;;11.43;64.12;99497.78;5920653;29;96348;-55
2024/01/12 12:34:45;;;;;;;;;17.40;15.80;;;;;11.40;66.07;99507.13;5920058;29;96299;-56
2024/01/12 12:37:51;;;;;;;;;14.00;13.00;;;;;11.44;65.82;99507.53;5913555;29;96249;-58
2024/01/12 12:40:54;;;;;;;;;21.20;16.20;;;;;11.29;66.88;99505.06;5908925;29;96262;-58
2024/01/12 12:43:58;;;;;;;;;14.60;13.60;;;;;10.99;67.11;99483.16;5906394;29;97575;-58
2024/01/12 12:47:04;;;;;;;;;13.00;12.00;;;;;10.83;67.98;99497.06;5905076;29;98510;-58
2024/01/12 12:50:10;;;;;;;;;15.75;14.75;;;;;10.55;68.92;99496.44;5906844;29;96320;-58
2024/01/12 12:53:14;;;;;;;;;12.00;11.00;;;;;10.34;69.44;99497.44;5902891;29;96821;-58
2024/01/12 12:56:18;;;;;;;;;14.00;12.00;;;;;9.99;69.79;99496.72;5910243;29;96302;-58
2024/01/12 12:59:21;;;;;;;;;14.40;14.00;;;;;9.91;71.36;99497.75;5903211;29;97002;-58
2024/01/12 13:02:25;;;;;;;;;14.00;11.60;;;;;9.70;71.76;99491.66;5908503;29;96401;-58
2024/01/12 13:05:29;;;;;;;;;13.00;12.00;;;;;9.65;71.79;99502.19;5907813;29;96313;-58
2024/01/12 13:08:33;;;;;;;;;13.00;12.00;;;;;9.63;72.15;99497.00;5908162;29;96434;-58
2024/01/12 13:11:36;;;;;;;;;13.80;12.00;;;;;9.45;72.80;99473.31;5907117;29;96823;-58
2024/01/12 13:14:40;;;;;;;;;15.40;13.00;;;;;9.56;72.79;99483.53;5907037;29;97942;-58
2024/01/12 13:17:43;;;;;;;;;13.00;12.00;;;;;9.52;73.18;99476.88;5908040;29;96321;-58
2024/01/12 13:20:48;;;;;;;;;14.00;12.75;;;;;9.53;73.21;99469.63;5908434;29;96471;-58
2024/01/12 13:23:51;;;;;;;;;14.25;13.50;;;;;9.49;73.21;99473.75;5906072;29;98490;-58
2024/01/12 13:26:54;;;;;;;;;13.20;12.20;;;;;9.39;73.20;99460.66;5908725;29;96426;-58
2024/01/12 13:29:57;;;;;;;;;13.60;12.00;;;;;9.42;73.42;99472.91;5908261;29;96353;-58
2024/01/12 13:33:02;;;;;;;;;14.60;12.00;;;;;9.29;73.54;99479.03;5906408;29;96940;-58
2024/01/12 13:36:08;;;;;;;;;14.67;13.00;;;;;9.04;74.22;99478.69;5908669;29;97228;-58
2024/01/12 13:39:12;;;;;;;;;14.40;12.40;;;;;8.81;75.32;99477.28;5904800;29;96762;-58
2024/01/12 13:42:15;;;;;;;;;12.20;11.20;;;;;8.68;75.76;99470.78;5905583;29;96835;-58
2024/01/12 13:45:19;;;;;;;;;14.60;12.60;;;;;8.50;76.54;99464.25;5905582;29;96368;-58
2024/01/12 13:48:26;;;;;;;;;15.00;13.60;;;;;8.37;77.85;99470.31;5913317;29;96317;-57
2024/01/12 13:51:31;;;;;;;;;14.00;12.60;;;;;8.30;78.54;99476.66;5914912;29;96275;-56
2024/01/12 13:54:34;;;;;;;;;15.00;14.00;;;;;8.06;80.24;99475.16;5917333;29;96602;-56
2024/01/12 13:57:37;;;;;;;;;17.40;16.00;;;;;7.89;81.62;99465.69;5916058;29;96317;-57
2024/01/12 14:00:40;;;;;;;;;17.80;16.40;;;;;7.69;83.25;99462.78;5917395;29;96315;-57
2024/01/12 14:03:47;;;;;;;;;16.00;14.00;;;;;7.52;84.01;99464.88;5913877;29;97184;-57
2024/01/12 14:06:52;;;;;;;;;19.00;16.00;;;;;7.32;84.69;99456.56;5914916;29;96460;-57
2024/01/12 14:09:55;;;;;;;;;18.00;16.00;;;;;7.20;85.59;99465.25;5916639;29;96173;-56